Acapulco G. Alvarez, Mexico

3:18 PM CDT on April 26, 2015 (GMT -0500)
Gen Juan N Alvarez International | | Change Station
CLOSE
Current Station
Airport
Location: Acapulco,
Elevation: 16 ft
Nearby Weather Stations

Elev 16 ft 16.76 °N, 99.75 °W | Updated 35 minutes ago

Clear
Clear
86 °F
Feels Like 97 °F
N
13
Wind Variable Wind from WSW

Today
High -- | Low -- °F
--% Chance of Precip.
Yesterday
High -- | Low -- °F
Precip. -- in
7:16 AM 7:57 PM
First Quarter, 58% visible
Pressure 29.77 in
Visibility 7.0 miles
Clouds Clear
Heat Index 97 °F
Dew Point 77 °F
Humidity 74%
Rainfall 0.00 in
Snow Depth Not available.
UV 12 out of 12
Pollen Not available.
Air Quality Not available.
Flu Activity Not available.
METAR MMAA 261943Z 25011KT 7SM SKC 30/25 A2977 RMK HZY

More Conditions Fewer Conditions

Pressure 29.77 in
Visibility 7.0 miles
Clouds Clear
Heat Index 97 °F
Dew Point 77 °F
Humidity 74%
Rainfall 0.00 in
Snow Depth Not available.
UV 12 out of 12
Pollen Not available.
Air Quality Not available.
Flu Activity Not available.
METAR MMAA 261943Z 25011KT 7SM SKC 30/25 A2977 RMK HZY

More Conditions Fewer Conditions

10-Day Weather Forecast

Almanac

Astronomy

Apr. 26, 2015 Rise Set
Actual Time
Civil Twilight
Nautical Twilight
Astronomical Twilight
Moon
Length of Visible Light
Length of Day
Tomorrow will be .
, % of the Moon is Illuminated

Today's Extremes

Country Highs Country Lows

Community

WunderPhotos

Upload Photos

1,817,109 photos uploaded!

WunderBlogs® & News

Nearby

Air Quality

  Air Quality AQ Index Pollutant
Not available.

Snow Depth

Station Depth Elevation

Earthquake Activity

City Distance Mag. Time & Date
Minimum magnitude displayed is 2.5.

Coastal Water Temperatures

Place Temperature

Stations

Nearby Weather Stations

Station Location Temp. Windchill Dew Point Humidity Wind Precip. Elev Updated Type